Time;durP1;ratioP1;P1;durP2;ratioP2;P2;SDS_P1;SDS_P2;PMS_P1;PMS_P2;Temp;Humidity;BMP_temperature;BMP_pressure;BME280_temperature;BME280_humidity;BME280_pressure;Samples;Min_cycle;Max_cycle;Signal;HPM_P1;HPM_P2
2021/04/05 00:02:24;;;;;;;25.40;11.00;;;;;;;3.57;76.49;100237.41;113135;1209;64471;-79
2021/04/05 00:04:51;;;;;;;24.00;11.80;;;;;;;3.68;75.73;100219.73;113186;1209;64342;-80
2021/04/05 00:07:17;;;;;;;27.00;12.20;;;;;;;3.75;75.82;100209.49;113281;1209;64455;-79
2021/04/05 00:09:45;;;;;;;26.70;13.20;;;;;;;3.81;75.45;100187.12;113283;1209;64362;-79
2021/04/05 00:12:12;;;;;;;29.70;12.00;;;;;;;3.84;75.38;100182.39;113229;1209;64435;-77
2021/04/05 00:14:41;;;;;;;30.70;13.33;;;;;;;3.86;75.04;100169.13;113001;1209;65599;-77
2021/04/05 00:17:10;;;;;;;26.80;9.70;;;;;;;3.87;75.11;100160.30;112984;1209;64365;-76
2021/04/05 00:19:42;;;;;;;24.50;11.97;;;;;;;3.90;74.76;100165.25;113001;1209;64468;-77
2021/04/05 00:22:09;;;;;;;34.25;16.30;;;;;;;3.92;74.98;100151.99;113036;1209;64489;-77
2021/04/05 00:24:36;;;;;;;31.90;15.37;;;;;;;3.92;74.68;100131.82;112958;1209;64712;-77
2021/04/05 00:27:04;;;;;;;22.00;10.57;;;;;;;3.95;74.63;100122.83;112881;1209;64406;-76
2021/04/05 00:29:30;;;;;;;40.55;18.10;;;;;;;3.97;74.04;100129.57;112964;1209;64500;-74
2021/04/05 00:31:57;;;;;;;28.97;14.20;;;;;;;3.97;73.60;100113.01;112936;1209;64323;-75
2021/04/05 00:34:23;;;;;;;25.30;12.25;;;;;;;3.96;74.10;100106.94;112977;1209;64317;-77
2021/04/05 00:36:50;;;;;;;29.15;14.25;;;;;;;3.96;73.83;100106.13;112988;1209;64377;-75
2021/04/05 00:39:16;;;;;;;31.97;16.67;;;;;;;3.94;74.38;100108.06;112990;1209;64423;-77
2021/04/05 00:41:43;;;;;;;31.57;15.47;;;;;;;3.94;74.28;100094.95;112979;1209;64356;-76
2021/04/05 00:44:11;;;;;;;23.83;10.60;;;;;;;3.92;74.45;100084.59;112917;1209;64505;-77
2021/04/05 00:46:38;;;;;;;37.50;16.83;;;;;;;3.92;74.49;100083.77;112949;1209;64391;-75
2021/04/05 00:49:05;;;;;;;34.40;17.55;;;;;;;3.91;74.10;100071.61;112958;1209;64384;-76
2021/04/05 00:51:32;;;;;;;37.13;18.43;;;;;;;3.93;74.60;100064.41;112886;1209;64407;-76
2021/04/05 00:53:59;;;;;;;44.55;16.25;;;;;;;3.93;74.71;100070.52;112955;1209;64445;-76
2021/04/05 00:56:27;;;;;;;38.17;14.73;;;;;;;3.96;74.19;100037.89;113204;1209;64722;-76
2021/04/05 00:58:54;;;;;;;40.57;17.83;;;;;;;3.99;74.33;100035.77;113176;1209;64577;-76
2021/04/05 01:01:26;;;;;;;35.40;17.33;;;;;;;4.02;73.54;100026.80;113033;1209;64388;-75
2021/04/05 01:03:55;;;;;;;50.80;20.80;;;;;;;4.06;73.97;100007.16;113006;1209;64483;-75
2021/04/05 01:06:30;;;;;;;32.80;15.23;;;;;;;4.08;73.96;100006.03;116004;1209;62624;-77
2021/04/05 01:08:57;;;;;;;39.77;17.00;;;;;;;4.13;73.80;99997.70;113894;1209;65573;-76
2021/04/05 01:11:27;;;;;;;29.70;14.45;;;;;;;4.18;72.96;99973.63;112907;1209;64358;-77
2021/04/05 01:13:55;;;;;;;28.90;14.37;;;;;;;4.22;72.82;99960.03;112988;1209;64464;-76
2021/04/05 01:16:26;;;;;;;34.65;17.40;;;;;;;4.22;72.80;99946.09;112938;1208;64365;-76
2021/04/05 01:18:54;;;;;;;33.03;14.10;;;;;;;4.21;73.30;99937.41;113017;1209;64352;-76
2021/04/05 01:21:21;;;;;;;25.15;12.70;;;;;;;4.18;72.96;99926.38;113001;1209;64387;-76
2021/04/05 01:23:48;;;;;;;28.27;13.40;;;;;;;4.17;72.50;99928.18;112985;1209;64505;-76
2021/04/05 01:26:15;;;;;;;23.13;12.10;;;;;;;4.17;72.76;99908.98;112972;1209;64566;-74
2021/04/05 01:28:43;;;;;;;28.00;13.20;;;;;;;4.14;72.92;99898.77;112923;1209;64419;-76
2021/04/05 01:31:13;;;;;;;25.65;12.75;;;;;;;4.11;73.52;99892.04;113080;1209;64384;-76
2021/04/05 01:33:42;;;;;;;22.43;10.87;;;;;;;4.11;73.40;99891.22;112953;1209;64326;-76
2021/04/05 01:36:12;;;;;;;28.10;13.30;;;;;;;4.07;73.04;99877.57;113025;1209;64409;-76
2021/04/05 01:38:51;;;;;;;32.67;14.83;;;;;;;4.08;72.99;99869.55;113000;1209;65817;-77
2021/04/05 01:41:22;;;;;;;27.53;11.67;;;;;;;4.08;73.48;99864.30;112938;1209;64313;-77
2021/04/05 01:43:50;;;;;;;28.60;14.60;;;;;;;4.07;73.20;99857.39;112976;1209;64394;-76
2021/04/05 01:46:18;;;;;;;31.90;15.47;;;;;;;4.06;73.78;99840.02;112974;1207;64445;-75
2021/04/05 01:48:46;;;;;;;35.60;15.90;;;;;;;4.07;73.33;99843.45;113162;1209;64474;-75
2021/04/05 01:51:21;;;;;;;37.53;15.80;;;;;;;4.11;73.56;99836.92;113023;1209;64820;-75
2021/04/05 01:53:52;;;;;;;32.23;14.87;;;;;;;4.13;73.85;99834.15;113163;1209;64429;-75
2021/04/05 01:56:21;;;;;;;39.63;17.27;;;;;;;4.15;73.81;99822.52;112924;1209;64403;-75
2021/04/05 01:58:50;;;;;;;37.55;17.70;;;;;;;4.16;73.89;99845.14;113068;1209;64332;-74
2021/04/05 02:01:22;;;;;;;36.97;17.17;;;;;;;4.18;73.25;99826.63;113116;1209;64840;-75
2021/04/05 02:03:49;;;;;;;27.23;12.00;;;;;;;4.20;73.56;99835.16;113112;1209;64413;-76
2021/04/05 02:06:25;;;;;;;25.47;11.00;;;;;;;4.22;73.02;99831.41;112941;1209;64374;-77
2021/04/05 02:08:52;;;;;;;29.20;14.87;;;;;;;4.21;73.62;99821.89;113193;1209;64403;-75
2021/04/05 02:11:24;;;;;;;25.65;13.80;;;;;;;4.23;73.47;99827.81;112986;1209;64381;-76
2021/04/05 02:13:55;;;;;;;24.20;13.50;;;;;;;4.24;73.71;99811.06;113020;1209;64793;-78
2021/04/05 02:16:23;;;;;;;27.73;12.93;;;;;;;4.28;73.16;99816.84;113357;1209;64387;-76
2021/04/05 02:18:51;;;;;;;28.77;13.13;;;;;;;4.31;73.19;99816.52;113142;1209;64477;-77
2021/04/05 02:21:21;;;;;;;22.60;10.73;;;;;;;4.31;73.55;99811.27;113157;1209;64384;-77
2021/04/05 02:23:49;;;;;;;29.43;12.93;;;;;;;4.31;73.80;99798.14;113105;1209;64425;-78
2021/04/05 02:26:26;;;;;;;27.00;12.90;;;;;;;4.34;73.40;99804.91;113197;1209;64519;-78
2021/04/05 02:29:00;;;;;;;23.50;10.30;;;;;;;4.38;73.89;99782.58;113284;1209;64346;-77
2021/04/05 02:31:32;;;;;;;21.73;11.13;;;;;;;4.39;73.25;99777.17;112999;1209;64359;-77
2021/04/05 02:34:04;;;;;;;28.43;11.90;;;;;;;4.40;73.17;99775.36;112918;1209;64394;-78
2021/04/05 02:36:32;;;;;;;25.23;13.57;;;;;;;4.42;73.80;99765.53;113033;1209;64384;-77
2021/04/05 02:39:05;;;;;;;29.60;13.77;;;;;;;4.44;73.22;99758.31;113093;1209;64576;-77
2021/04/05 02:41:35;;;;;;;28.83;12.17;;;;;;;4.49;73.32;99756.06;113219;1209;64445;-78
2021/04/05 02:44:02;;;;;;;24.57;11.73;;;;;;;4.51;73.68;99738.34;113354;1209;64377;-78
2021/04/05 02:46:34;;;;;;;26.65;12.60;;;;;;;4.52;73.34;99742.59;113139;1209;64374;-78
2021/04/05 02:49:03;;;;;;;24.13;12.20;;;;;;;4.54;73.49;99726.69;113156;1209;64432;-77
2021/04/05 02:51:31;;;;;;;28.20;13.05;;;;;;;4.59;73.36;99741.00;113333;1209;64381;-78
2021/04/05 02:54:02;;;;;;;33.30;13.43;;;;;;;4.66;72.94;99730.67;113062;1209;64352;-77
2021/04/05 02:56:30;;;;;;;19.30;9.00;;;;;;;4.71;72.98;99728.36;113258;1209;64368;-78
2021/04/05 02:58:58;;;;;;;24.60;11.60;;;;;;;4.75;72.98;99716.55;113238;1209;65276;-78
2021/04/05 03:01:26;;;;;;;27.97;14.10;;;;;;;4.78;72.57;99697.86;113174;1209;64384;-78
2021/04/05 03:03:58;;;;;;;28.60;13.63;;;;;;;4.84;73.00;99691.11;113292;1209;64371;-78
2021/04/05 03:06:28;;;;;;;31.50;14.40;;;;;;;4.87;72.31;99690.80;113550;1209;64355;-77
2021/04/05 03:08:58;;;;;;;24.37;11.87;;;;;;;4.89;72.87;99689.65;113076;1209;64384;-78
2021/04/05 03:11:25;;;;;;;25.40;12.37;;;;;;;4.92;72.96;99703.45;113106;1209;64458;-78
2021/04/05 03:13:53;;;;;;;22.15;11.65;;;;;;;4.92;72.96;99691.13;113204;1209;64505;-77
2021/04/05 03:16:22;;;;;;;29.20;14.03;;;;;;;4.95;72.64;99676.83;113874;1209;64535;-77
2021/04/05 03:18:51;;;;;;;23.90;12.20;;;;;;;4.98;73.16;99681.78;115068;1209;64381;-78
2021/04/05 03:21:21;;;;;;;25.85;12.90;;;;;;;5.00;72.92;99661.41;115974;1209;62674;-78
2021/04/05 03:23:48;;;;;;;20.57;11.23;;;;;;;5.01;72.89;99655.16;113262;1209;64320;-78
2021/04/05 03:26:15;;;;;;;31.70;14.10;;;;;;;5.04;72.34;99660.09;113160;1209;64361;-78
2021/04/05 03:28:42;;;;;;;28.83;14.60;;;;;;;5.08;72.71;99648.27;113171;1209;64419;-77
2021/04/05 03:31:21;;;;;;;28.47;13.53;;;;;;;5.10;72.84;99612.13;113005;1209;64365;-77
2021/04/05 03:34:13;;;;;;;28.00;15.90;;;;;;;5.10;72.56;99610.31;113070;1209;64683;-77
2021/04/05 03:36:54;;;;;;;23.63;11.03;;;;;;;5.10;73.14;99618.20;112968;1209;64375;-77
2021/04/05 03:39:21;;;;;;;29.70;11.07;;;;;;;5.13;72.91;99609.16;113221;1209;64397;-78
2021/04/05 03:42:10;;;;;;;22.07;12.13;;;;;;;5.17;73.27;99594.69;113188;1209;64601;-77
2021/04/05 03:44:55;;;;;;;25.17;14.47;;;;;;;5.18;73.25;99606.83;113295;1209;64450;-78
2021/04/05 03:47:45;;;;;;;26.57;13.17;;;;;;;5.21;73.64;99587.30;113289;1209;64314;-79
2021/04/05 03:50:22;;;;;;;26.03;12.77;;;;;;;5.21;73.50;99572.34;112979;1209;64310;-77
2021/04/05 03:52:52;;;;;;;21.93;10.73;;;;;;;5.24;72.82;99568.55;112972;1209;64461;-77
2021/04/05 03:55:23;;;;;;;24.37;13.20;;;;;;;5.25;73.17;99572.83;113145;1209;64506;-79
2021/04/05 03:57:52;;;;;;;24.70;13.85;;;;;;;5.25;73.05;99568.38;113035;1209;64358;-77
2021/04/05 04:00:21;;;;;;;23.83;13.93;;;;;;;5.26;73.29;99558.68;113586;1209;64378;-79
2021/04/05 04:02:51;;;;;;;29.40;14.77;;;;;;;5.30;73.63;99549.47;113375;1209;64371;-79
2021/04/05 04:05:48;;;;;;;24.40;13.15;;;;;;;5.33;72.94;99543.05;113071;1209;64323;-80
2021/04/05 04:08:26;;;;;;;26.20;13.60;;;;;;;5.31;73.47;99559.83;113016;1209;64802;-77
2021/04/05 04:10:57;;;;;;;32.10;16.50;;;;;;;5.31;73.51;99545.84;112984;1209;64416;-78
2021/04/05 04:13:26;;;;;;;30.40;14.13;;;;;;;5.30;72.99;99518.73;112935;1209;65594;-77
2021/04/05 04:15:53;;;;;;;27.87;14.53;;;;;;;5.31;73.58;99515.13;113030;1209;64362;-78
2021/04/05 04:18:21;;;;;;;31.40;17.77;;;;;;;5.33;73.37;99508.86;113071;1209;65625;-78
2021/04/05 04:20:48;;;;;;;24.67;13.43;;;;;;;5.34;73.57;99505.26;113092;1209;64974;-80
2021/04/05 04:23:15;;;;;;;29.35;16.50;;;;;;;5.31;73.60;99488.83;113208;1209;64393;-78
2021/04/05 04:25:42;;;;;;;26.33;12.17;;;;;;;5.33;73.09;99485.19;113146;1209;64354;-78
2021/04/05 04:28:15;;;;;;;24.07;13.33;;;;;;;5.36;73.39;99490.13;113172;1209;64393;-78
2021/04/05 04:30:42;;;;;;;30.70;14.93;;;;;;;5.37;72.98;99499.64;113145;1209;64378;-80
2021/04/05 04:33:11;;;;;;;27.95;13.45;;;;;;;5.38;73.16;99490.78;113189;1209;64551;-79
2021/04/05 04:35:40;;;;;;;26.07;14.07;;;;;;;5.40;73.74;99483.51;113177;1209;64467;-77
2021/04/05 04:38:07;;;;;;;31.20;14.70;;;;;;;5.43;73.12;99496.33;113160;1209;64419;-76
2021/04/05 04:40:35;;;;;;;26.37;13.83;;;;;;;5.43;73.24;99470.84;112984;1209;64372;-77
2021/04/05 04:43:05;;;;;;;27.73;15.87;;;;;;;5.43;73.54;99476.11;112932;1208;64495;-75
2021/04/05 04:45:33;;;;;;;26.70;12.40;;;;;;;5.44;73.42;99475.13;113165;1209;64719;-77
2021/04/05 04:48:00;;;;;;;24.90;12.05;;;;;;;5.46;72.99;99438.95;113067;1209;65349;-76
2021/04/05 04:50:28;;;;;;;19.77;11.40;;;;;;;5.48;73.22;99433.50;112918;1209;64409;-77
2021/04/05 04:52:55;;;;;;;21.23;12.17;;;;;;;5.48;73.77;99441.39;113003;1209;64387;-76
2021/04/05 04:55:24;;;;;;;29.40;14.13;;;;;;;5.49;73.27;99435.16;113066;1209;64527;-76
2021/04/05 04:57:58;;;;;;;24.23;12.73;;;;;;;5.51;74.06;99435.80;112985;1209;64624;-78
2021/04/05 05:00:26;;;;;;;19.83;10.63;;;;;;;5.53;73.42;99441.71;112964;1209;64400;-78
2021/04/05 05:02:54;;;;;;;18.23;11.40;;;;;;;5.54;73.75;99429.38;113108;1209;64380;-77
2021/04/05 05:05:23;;;;;;;27.17;14.13;;;;;;;5.54;74.02;99419.66;113131;1209;64269;-79
2021/04/05 05:07:50;;;;;;;22.00;11.53;;;;;;;5.55;73.47;99416.05;113182;1207;64324;-78
2021/04/05 05:10:19;;;;;;;18.80;10.55;;;;;;;5.57;74.06;99408.81;113100;1209;64509;-79
2021/04/05 05:12:46;;;;;;;23.25;12.55;;;;;;;5.58;74.45;99422.77;113445;1209;64399;-77
2021/04/05 05:15:15;;;;;;;21.83;11.37;;;;;;;5.57;75.08;99407.97;112921;1209;64384;-78
2021/04/05 05:17:43;;;;;;;23.87;12.87;;;;;;;5.52;76.44;99426.91;112934;1209;65617;-76
2021/04/05 05:20:12;;;;;;;30.77;12.60;;;;;;;5.44;77.82;99442.73;112979;1209;64902;-76
2021/04/05 05:22:44;;;;;;;28.73;14.43;;;;;;;5.36;78.87;99406.79;112917;1209;64524;-75
2021/04/05 05:25:15;;;;;;;28.27;14.00;;;;;;;5.25;78.91;99425.59;112979;1209;64381;-77
2021/04/05 05:27:46;;;;;;;19.83;10.73;;;;;;;5.14;79.33;99413.62;112969;1209;64354;-77
2021/04/05 05:30:22;;;;;;;20.97;13.07;;;;;;;5.06;79.86;99398.72;112967;1209;64365;-77
2021/04/05 05:32:54;;;;;;;27.17;13.87;;;;;;;5.02;81.02;99388.73;112899;1209;64445;-77
2021/04/05 05:35:23;;;;;;;21.97;10.63;;;;;;;4.95;81.08;99414.03;113043;1209;64516;-77
2021/04/05 05:37:50;;;;;;;25.95;11.95;;;;;;;4.92;81.78;99401.24;112955;1209;64388;-77
2021/04/05 05:40:23;;;;;;;24.35;12.95;;;;;;;4.88;82.35;99391.05;112935;1209;64489;-76
2021/04/05 05:43:20;;;;;;;21.33;12.00;;;;;;;4.85;83.17;99383.53;113059;1209;65614;-79
2021/04/05 05:45:56;;;;;;;21.10;10.37;;;;;;;4.83;82.69;99400.45;112945;1209;64355;-76
2021/04/05 05:48:41;;;;;;;25.33;13.80;;;;;;;4.80;84.14;99396.37;112949;1209;64381;-77
2021/04/05 05:51:40;;;;;;;22.80;11.40;;;;;;;4.79;83.90;99357.94;113010;1209;64397;-79
2021/04/05 05:54:28;;;;;;;20.95;12.50;;;;;;;4.74;84.97;99376.03;112978;1209;64503;-79
2021/04/05 05:57:06;;;;;;;23.33;12.20;;;;;;;4.69;84.89;99352.86;113062;1209;64304;-79
2021/04/05 05:59:49;;;;;;;23.03;12.10;;;;;;;4.68;84.51;99353.06;112944;1209;64349;-77
2021/04/05 06:02:30;;;;;;;24.30;12.53;;;;;;;4.68;85.60;99350.43;112938;1209;64445;-77
2021/04/05 06:05:14;;;;;;;17.73;9.30;;;;;;;4.67;85.60;99360.09;112967;1209;64390;-78
2021/04/05 06:08:02;;;;;;;25.77;13.13;;;;;;;4.66;85.71;99362.91;112952;1209;65212;-79
2021/04/05 06:10:48;;;;;;;23.20;12.20;;;;;;;4.67;85.96;99346.15;113478;1209;64304;-79
2021/04/05 06:13:35;;;;;;;23.30;12.33;;;;;;;4.66;86.79;99344.53;113138;1209;64406;-79
2021/04/05 06:16:01;;;;;;;24.57;12.60;;;;;;;4.63;86.55;99337.81;112961;1209;65706;-77
2021/04/05 06:18:47;;;;;;;23.45;13.25;;;;;;;4.61;87.03;99320.56;113142;1209;64381;-79
2021/04/05 06:21:22;;;;;;;22.50;11.97;;;;;;;4.62;86.96;99335.34;113422;1209;64333;-79
2021/04/05 06:23:51;;;;;;;23.95;11.20;;;;;;;4.61;86.99;99320.56;113128;1209;64351;-80
2021/04/05 06:26:43;;;;;;;21.73;12.80;;;;;;;4.60;87.50;99324.19;113104;1209;64656;-80
2021/04/05 06:29:29;;;;;;;20.90;10.37;;;;;;;4.58;87.91;99328.80;113093;1209;64457;-80
2021/04/05 06:32:34;;;;;;;17.43;9.87;;;;;;;4.56;88.16;99331.58;113126;1209;64428;-80
2021/04/05 06:35:11;;;;;;;19.50;10.95;;;;;;;4.54;88.27;99354.56;113120;1209;64413;-80
2021/04/05 06:37:46;;;;;;;17.93;11.13;;;;;;;4.52;88.39;99313.71;113242;1209;64368;-81
2021/04/05 06:40:18;;;;;;;12.73;7.30;;;;;;;4.51;89.30;99317.34;113104;1209;65268;-81
2021/04/05 06:43:12;;;;;;;21.97;9.97;;;;;;;4.49;89.26;99310.44;113250;1209;64378;-80
2021/04/05 06:46:13;;;;;;;15.83;8.57;;;;;;;4.49;89.75;99312.25;113112;1209;64340;-81
2021/04/05 06:48:58;;;;;;;13.23;8.27;;;;;;;4.47;90.20;99299.28;113276;1209;64346;-80
2021/04/05 06:51:37;;;;;;;16.95;6.90;;;;;;;4.47;89.67;99312.41;113190;1209;64342;-81
2021/04/05 06:54:29;;;;;;;20.87;10.30;;;;;;;4.48;89.92;99305.34;113171;1209;64378;-80
2021/04/05 06:57:06;;;;;;;22.77;10.70;;;;;;;4.47;90.05;99311.59;113330;1209;64394;-82
2021/04/05 06:59:41;;;;;;;18.87;10.37;;;;;;;4.46;90.30;99295.03;113141;1209;64352;-82
2021/04/05 07:02:13;;;;;;;;;;;;;;;4.45;90.40;99293.38;113340;1216;64371;-79
2021/04/05 07:04:46;;;;;;;19.27;7.90;;;;;;;4.45;90.70;99296.00;113531;1209;64387;-80
2021/04/05 07:07:28;;;;;;;15.83;9.30;;;;;;;4.47;91.21;99298.47;113544;1209;64329;-79
2021/04/05 07:10:02;;;;;;;20.30;11.35;;;;;;;4.46;91.08;99305.53;113455;1209;64416;-80
2021/04/05 07:13:01;;;;;;;14.40;7.57;;;;;;;4.45;91.37;99311.76;113348;1209;64790;-79
2021/04/05 07:15:42;;;;;;;16.83;8.77;;;;;;;4.43;91.35;99350.49;113173;1209;64336;-78
2021/04/05 07:18:32;;;;;;;15.70;7.90;;;;;;;4.43;91.32;99366.25;113402;1209;64375;-77
2021/04/05 07:21:14;;;;;;;3.60;1.30;;;;;;;3.95;84.20;99386.31;113088;1209;64404;-77
2021/04/05 07:24:14;;;;;;;2.35;1.30;;;;;;;3.39;83.84;99390.53;113050;1209;64384;-77
2021/04/05 07:27:04;;;;;;;4.90;1.30;;;;;;;3.00;86.31;99402.38;112958;1209;64476;-75
2021/04/05 07:29:54;;;;;;;1.80;0.90;;;;;;;2.84;87.91;99397.06;112973;1209;64416;-76
2021/04/05 07:33:00;;;;;;;3.03;1.00;;;;;;;2.77;88.62;99386.39;112895;1208;65352;-74
2021/04/05 07:35:52;;;;;;;0.90;0.55;;;;;;;2.74;87.89;99391.95;112861;1209;64833;-74
2021/04/05 07:38:18;;;;;;;1.20;0.67;;;;;;;2.75;89.10;99398.02;112884;1209;65658;-74
2021/04/05 07:40:54;;;;;;;0.90;0.53;;;;;;;2.77;88.84;99411.77;112968;1209;65621;-75
2021/04/05 07:44:03;;;;;;;0.60;0.60;;;;;;;2.75;88.28;99409.30;112914;1209;64320;-74
2021/04/05 07:46:47;;;;;;;;;;;;;;;2.70;88.00;99426.44;112716;1219;64352;-75
2021/04/05 07:49:25;;;;;;;1.53;0.40;;;;;;;2.68;88.55;99417.92;112861;1209;65507;-74
2021/04/05 07:52:02;;;;;;;1.40;0.60;;;;;;;2.68;88.15;99431.02;112884;1209;64534;-76
2021/04/05 07:54:33;;;;;;;2.73;0.57;;;;;;;2.68;88.66;99454.58;113024;1209;64381;-75
2021/04/05 07:57:26;;;;;;;2.30;0.60;;;;;;;2.69;88.37;99451.00;113321;1209;64343;-75
2021/04/05 08:00:17;;;;;;;2.10;0.70;;;;;;;2.69;88.25;99459.67;113016;1209;64457;-75
2021/04/05 08:03:10;;;;;;;23.47;3.43;;;;;;;2.69;88.57;99464.91;112952;1209;64840;-75
2021/04/05 08:05:58;;;;;;;1.40;0.40;;;;;;;2.65;86.88;99487.13;112902;1209;65507;-74
2021/04/05 08:08:40;;;;;;;1.07;0.83;;;;;;;2.64;86.06;99460.14;113085;1209;64399;-74
2021/04/05 08:11:38;;;;;;;1.23;0.43;;;;;;;2.66;86.56;99473.08;112905;1209;64316;-75
2021/04/05 08:14:20;;;;;;;1.63;0.63;;;;;;;2.70;86.13;99469.19;112925;1209;64496;-74
2021/04/05 08:17:01;;;;;;;3.20;0.57;;;;;;;2.70;83.06;99458.71;113030;1209;64471;-74
2021/04/05 08:19:53;;;;;;;1.73;0.50;;;;;;;2.71;81.41;99480.47;112890;1209;64390;-75
2021/04/05 08:22:43;;;;;;;3.90;0.50;;;;;;;2.72;82.50;99456.76;112899;1209;64371;-74
2021/04/05 08:25:31;;;;;;;1.50;0.67;;;;;;;2.71;80.60;99472.61;113088;1209;64352;-74
2021/04/05 08:28:16;;;;;;;1.80;0.50;;;;;;;2.69;80.46;99466.70;113309;1209;64381;-74
2021/04/05 08:30:56;;;;;;;3.20;0.60;;;;;;;2.70;81.30;99455.25;112934;1209;64311;-74
2021/04/05 08:34:00;;;;;;;3.60;0.50;;;;;;;2.75;82.30;99472.15;112917;1209;65352;-74
2021/04/05 08:36:35;;;;;;;0.70;0.30;;;;;;;2.87;81.43;99475.34;112917;1209;64492;-75
2021/04/05 08:39:13;;;;;;;2.90;0.70;;;;;;;2.97;81.67;99491.74;113015;1209;64384;-74
2021/04/05 08:42:12;;;;;;;3.75;0.60;;;;;;;2.98;80.19;99495.20;113685;1209;65617;-74
2021/04/05 08:44:51;;;;;;;6.40;2.90;;;;;;;2.97;80.71;99496.98;113436;1209;64342;-75
2021/04/05 08:47:25;;;;;;;2.25;0.60;;;;;;;2.95;79.37;99505.98;112877;1209;65343;-74
2021/04/05 08:49:58;;;;;;;1.53;0.55;;;;;;;2.90;79.46;99513.49;113964;1209;64330;-75
2021/04/05 08:52:31;;;;;;;1.93;0.80;;;;;;;2.88;79.15;99526.73;112945;1209;64272;-74
2021/04/05 08:55:01;;;;;;;3.37;1.00;;;;;;;2.92;80.73;99498.44;112973;1209;64371;-74
2021/04/05 08:57:39;;;;;;;2.60;0.65;;;;;;;2.99;80.91;99504.70;112962;1209;64407;-74
2021/04/05 09:00:10;;;;;;;3.00;0.80;;;;;;;2.97;78.53;99507.46;112850;1209;64518;-74
2021/04/05 09:02:46;;;;;;;2.85;0.70;;;;;;;2.99;79.22;99536.13;112946;1209;65626;-74
2021/04/05 09:05:18;;;;;;;1.90;0.50;;;;;;;2.94;79.58;99523.50;113027;1209;64492;-73
2021/04/05 09:08:01;;;;;;;4.30;1.03;;;;;;;2.89;79.30;99520.53;112908;1209;64393;-74
2021/04/05 09:10:51;;;;;;;4.27;0.80;;;;;;;2.92;80.14;99537.73;114054;1209;64359;-74
2021/04/05 09:13:24;;;;;;;6.20;2.57;;;;;;;2.97;76.99;99531.03;112931;1209;64388;-74
2021/04/05 09:16:28;;;;;;;2.80;0.85;;;;;;;3.00;78.22;99535.17;112869;1209;64493;-75
2021/04/05 09:19:21;;;;;;;1.90;0.80;;;;;;;3.03;76.31;99540.91;112902;1209;64371;-74
2021/04/05 09:22:24;;;;;;;1.70;0.60;;;;;;;3.03;73.89;99529.61;112945;1209;65599;-73
2021/04/05 09:25:32;;;;;;;1.57;0.50;;;;;;;3.00;74.33;99527.31;112907;1209;64317;-75
2021/04/05 09:28:05;;;;;;;2.30;0.50;;;;;;;2.98;74.37;99524.02;112732;1209;64368;-75
2021/04/05 09:31:18;;;;;;;1.90;0.70;;;;;;;2.99;73.52;99525.65;113184;1209;64384;-74
2021/04/05 09:33:57;;;;;;;2.30;0.55;;;;;;;3.11;73.65;99515.74;112992;1209;64321;-73
2021/04/05 09:37:01;;;;;;;4.03;0.50;;;;;;;3.16;74.06;99527.38;113063;1209;64355;-73
2021/04/05 09:39:52;;;;;;;;;;;;;;;3.28;74.13;99545.48;112995;1216;64409;-74
2021/04/05 09:42:55;;;;;;;2.73;0.83;;;;;;;3.42;74.46;99531.77;112921;1209;64554;-75
2021/04/05 09:45:52;;;;;;;2.80;0.30;;;;;;;3.61;74.44;99525.45;112925;1209;65389;-74
2021/04/05 09:48:50;;;;;;;12.65;1.10;;;;;;;3.67;72.42;99556.28;112947;1209;64489;-74
2021/04/05 09:51:42;;;;;;;2.90;0.80;;;;;;;3.58;71.90;99541.52;113736;1209;65520;-75
2021/04/05 09:54:34;;;;;;;4.50;1.70;;;;;;;3.47;72.96;99539.99;113097;1209;65330;-72
2021/04/05 09:57:10;;;;;;;7.45;1.00;;;;;;;3.28;74.47;99571.69;113015;1209;64547;-74
2021/04/05 09:59:44;;;;;;;0.10;0.10;;;;;;;2.78;77.02;99576.58;112941;1209;64407;-75
2021/04/05 10:02:15;;;;;;;1.18;0.20;;;;;;;2.18;79.13;99595.52;113182;1209;64381;-74
2021/04/05 10:04:44;;;;;;;1.10;0.20;;;;;;;1.53;80.91;99590.38;113569;1209;64381;-74
2021/04/05 10:07:13;;;;;;;1.70;0.57;;;;;;;1.32;80.75;99601.04;112930;1209;64359;-74
2021/04/05 10:09:42;;;;;;;3.03;0.40;;;;;;;1.38;79.76;99587.41;113900;1209;64355;-74
2021/04/05 10:12:11;;;;;;;3.03;0.50;;;;;;;1.45;77.44;99608.56;113062;1209;64406;-74
2021/04/05 10:15:00;;;;;;;1.85;0.60;;;;;;;1.53;77.73;99589.53;112948;1209;64812;-74
2021/04/05 10:17:28;;;;;;;1.93;0.57;;;;;;;1.59;76.75;99594.19;112987;1209;64423;-73
2021/04/05 10:19:57;;;;;;;2.70;1.20;;;;;;;1.74;76.45;99597.15;113024;1209;64381;-74
2021/04/05 10:22:24;;;;;;;3.33;0.70;;;;;;;1.90;76.01;99592.12;113150;1209;64409;-75
2021/04/05 10:25:00;;;;;;;1.47;0.43;;;;;;;2.10;77.33;99602.47;112973;1209;64384;-75
2021/04/05 10:27:29;;;;;;;1.00;0.30;;;;;;;2.03;78.92;99623.97;113162;1209;64420;-75
2021/04/05 10:29:57;;;;;;;1.37;0.27;;;;;;;1.74;77.99;99639.83;113155;1209;64377;-75
2021/04/05 10:32:26;;;;;;;0.90;0.43;;;;;;;1.60;80.03;99643.72;113121;1209;64381;-77
2021/04/05 10:34:56;;;;;;;2.10;0.20;;;;;;;1.63;80.17;99656.48;113029;1209;64607;-74
2021/04/05 10:37:33;;;;;;;1.30;0.30;;;;;;;1.67;80.18;99648.38;113261;1209;64403;-75
2021/04/05 10:40:02;;;;;;;0.95;0.50;;;;;;;1.59;80.37;99644.70;113070;1209;64391;-74
2021/04/05 10:42:50;;;;;;;0.40;0.20;;;;;;;1.68;80.59;99644.78;114238;1209;64313;-77
2021/04/05 10:45:26;;;;;;;0.30;0.20;;;;;;;1.62;81.09;99672.34;113311;1209;65276;-75
2021/04/05 10:48:02;;;;;;;5.20;0.50;;;;;;;1.58;80.96;99661.33;113079;1209;64397;-76
2021/04/05 10:50:34;;;;;;;0.73;0.30;;;;;;;1.64;80.69;99665.18;113038;1209;64522;-76
2021/04/05 10:53:14;;;;;;;2.77;0.80;;;;;;;1.56;79.86;99680.74;112997;1209;64486;-75
2021/04/05 10:55:47;;;;;;;0.33;0.20;;;;;;;1.53;80.63;99684.47;113149;1209;64448;-76
2021/04/05 10:58:19;;;;;;;3.10;0.43;;;;;;;1.46;81.27;99677.33;113019;1209;64416;-76
2021/04/05 11:00:57;;;;;;;2.60;0.50;;;;;;;1.62;82.45;99675.77;112884;1209;64451;-74
2021/04/05 11:03:28;;;;;;;0.30;0.30;;;;;;;1.83;80.83;99675.56;113076;1209;64343;-75
2021/04/05 11:06:07;;;;;;;2.73;0.60;;;;;;;1.95;78.21;99670.95;112906;1209;64793;-74
2021/04/05 11:08:36;;;;;;;2.00;0.60;;;;;;;2.13;76.42;99671.02;112878;1209;64390;-74
2021/04/05 11:11:07;;;;;;;2.40;0.55;;;;;;;2.30;75.01;99669.41;114775;1209;64413;-74
2021/04/05 11:13:38;;;;;;;0.75;0.35;;;;;;;2.51;74.70;99656.06;112929;1209;64611;-75
2021/04/05 11:16:18;;;;;;;1.75;0.45;;;;;;;2.74;72.59;99690.49;113167;1209;64836;-74
2021/04/05 11:18:53;;;;;;;2.05;0.50;;;;;;;2.84;69.18;99691.22;113229;1209;64410;-73
2021/04/05 11:21:26;;;;;;;3.10;0.75;;;;;;;3.10;70.38;99677.35;113261;1209;64423;-74
2021/04/05 11:23:57;;;;;;;3.90;0.80;;;;;;;3.24;70.24;99674.19;112895;1209;64403;-76
2021/04/05 11:26:34;;;;;;;1.85;0.80;;;;;;;3.23;67.71;99659.45;113052;1209;65674;-75
2021/04/05 11:29:06;;;;;;;2.43;0.53;;;;;;;3.33;66.75;99674.26;112948;1209;64381;-76
2021/04/05 11:31:40;;;;;;;1.30;0.50;;;;;;;3.36;64.00;99690.52;113409;1209;64927;-75
2021/04/05 11:34:07;;;;;;;3.50;0.97;;;;;;;3.28;62.89;99707.98;113772;1209;64359;-75
2021/04/05 11:36:47;;;;;;;7.23;1.37;;;;;;;3.31;64.73;99733.88;113079;1209;64419;-75
2021/04/05 11:39:19;;;;;;;3.40;0.70;;;;;;;1.78;79.10;99752.78;113347;1209;64477;-75
2021/04/05 11:41:53;;;;;;;0.90;0.40;;;;;;;1.00;81.91;99755.47;112992;1209;64386;-77
2021/04/05 11:44:23;;;;;;;2.40;0.90;;;;;;;0.47;83.00;99781.85;113022;1209;64413;-74
2021/04/05 11:46:55;;;;;;;3.20;0.80;;;;;;;0.28;82.98;99764.38;113188;1209;64368;-75
2021/04/05 11:49:30;;;;;;;2.05;0.50;;;;;;;0.12;81.59;99729.16;112883;1209;64433;-74
2021/04/05 11:52:09;;;;;;;2.25;0.70;;;;;;;-0.01;80.20;99759.84;113018;1209;64390;-74
2021/04/05 11:54:43;;;;;;;2.90;0.83;;;;;;;0.07;80.89;99725.31;112974;1209;64439;-75
2021/04/05 11:57:13;;;;;;;3.57;0.90;;;;;;;0.32;78.68;99721.39;112930;1209;64407;-76
2021/04/05 11:59:49;;;;;;;1.77;0.57;;;;;;;0.63;75.35;99729.17;113045;1209;64725;-76
2021/04/05 12:02:35;;;;;;;1.73;0.50;;;;;;;1.03;71.86;99734.30;112970;1209;64821;-75
2021/04/05 12:05:05;;;;;;;5.25;1.55;;;;;;;1.50;68.93;99723.94;112912;1209;64461;-76